createdAt,value
2018-10-03T05:57:49.911Z,10.40
2018-10-03T05:58:45.004Z,22.00
2018-10-03T05:59:45.074Z,26.20
2018-10-03T06:00:44.788Z,26.90
2018-10-03T06:01:44.851Z,29.60
2018-10-03T06:02:44.737Z,27.00
2018-10-03T06:03:44.842Z,27.40
2018-10-03T06:04:44.703Z,20.30
2018-10-03T06:05:44.658Z,26.40
2018-10-03T06:06:44.652Z,26.80
2018-10-03T06:07:44.737Z,22.70
2018-10-03T06:08:44.666Z,27.80
2018-10-03T06:09:44.674Z,28.60
2018-10-03T06:10:56.739Z,26.20
2018-10-03T06:11:44.744Z,27.50
2018-10-03T06:12:44.892Z,28.60
2018-10-03T06:13:45.534Z,26.20
2018-10-03T06:14:44.751Z,27.80
2018-10-03T06:17:07.035Z,18.50
2018-10-03T06:18:06.974Z,23.50
2018-10-03T06:19:07.022Z,29.20
2018-10-03T06:20:06.917Z,25.20
2018-10-03T06:21:06.987Z,24.40
2018-10-03T06:22:06.847Z,22.80
2018-10-03T06:23:06.918Z,25.20
2018-10-03T06:24:06.800Z,25.50
2018-10-03T06:25:07.321Z,25.50
2018-10-03T06:26:06.749Z,25.90
2018-10-03T06:27:07.235Z,27.40
2018-10-03T06:28:06.713Z,24.10
2018-10-03T06:31:08.149Z,21.10
2018-10-03T06:32:08.005Z,26.20
2018-10-03T06:33:08.041Z,31.80
2018-10-03T06:34:08.015Z,28.90
2018-10-03T06:35:07.991Z,27.40
2018-10-03T06:37:25.572Z,27.70
2018-10-03T06:58:09.618Z,21.60
2018-10-03T07:22:26.465Z,30.70
2018-10-03T07:26:09.219Z,24.50
2018-10-03T07:27:08.959Z,27.90
2018-10-03T07:28:08.976Z,23.70
2018-10-03T07:29:08.989Z,23.00
2018-10-03T07:30:20.023Z,23.00
2018-10-03T07:31:08.814Z,24.20
2018-10-03T07:33:48.361Z,24.50
2018-10-03T07:34:48.051Z,24.40
2018-10-03T07:35:47.932Z,25.70
2018-10-03T07:36:54.393Z,25.50
2018-10-03T07:37:47.368Z,23.50
2018-10-03T07:38:49.193Z,20.10
2018-10-03T07:39:52.412Z,25.10
2018-10-03T07:40:47.335Z,22.60
2018-10-03T07:41:47.292Z,25.20
2018-10-03T07:42:47.305Z,22.30
2018-10-03T07:43:47.278Z,27.90
2018-10-03T07:44:47.352Z,24.30
2018-10-03T07:45:47.520Z,22.60
2018-10-03T07:48:10.444Z,22.80
2018-10-03T07:49:10.020Z,23.80
2018-10-03T07:50:09.845Z,24.40
2018-10-03T07:53:09.399Z,23.30
2018-10-03T07:54:09.219Z,22.30
2018-10-03T07:55:09.308Z,27.20
2018-10-03T07:56:09.013Z,21.30
2018-10-03T07:57:08.996Z,23.80
2018-10-03T07:58:09.396Z,27.10
2018-10-03T07:59:09.223Z,19.40
2018-10-03T08:10:33.990Z,21.90
2018-10-03T08:56:18.708Z,14.70
2018-10-03T09:19:07.315Z,24.80
2018-10-03T09:20:06.886Z,19.20
2018-10-03T09:21:07.269Z,21.40
2018-10-03T09:22:06.981Z,20.60
2018-10-03T09:23:06.965Z,24.00
2018-10-03T09:24:06.895Z,17.90
2018-10-03T09:25:06.881Z,21.50
2018-10-03T09:26:07.334Z,16.80
2018-10-03T09:28:59.540Z,15.30
2018-10-03T09:29:59.327Z,17.20
2018-10-03T09:30:59.229Z,16.40
2018-10-03T09:31:59.375Z,21.40
2018-10-03T09:32:59.260Z,22.50
2018-10-03T09:33:59.332Z,16.90
2018-10-03T09:34:59.121Z,18.00
2018-10-03T09:35:59.120Z,18.30
2018-10-03T09:36:59.109Z,20.00
2018-10-03T09:37:59.182Z,17.70
2018-10-03T09:38:59.104Z,18.60
2018-10-03T09:39:59.884Z,16.90
2018-10-03T09:40:59.136Z,16.00
2018-10-03T09:41:59.192Z,21.00
2018-10-03T09:42:59.069Z,17.10
2018-10-03T09:43:59.044Z,15.10
2018-10-03T09:44:59.193Z,14.80
2018-10-03T09:45:59.002Z,15.10
2018-10-03T09:46:58.993Z,17.60
2018-10-03T09:47:59.305Z,14.00
2018-10-03T09:48:59.006Z,21.40
2018-10-03T09:49:59.049Z,19.80
2018-10-03T09:50:58.993Z,17.20
2018-10-03T09:51:58.994Z,14.50
2018-10-03T09:52:59.162Z,18.30
2018-10-03T09:53:58.929Z,19.50
2018-10-03T09:54:58.901Z,15.40
2018-10-03T09:55:58.943Z,15.60
2018-10-03T09:56:58.884Z,15.50
2018-10-03T09:57:58.883Z,17.60
2018-10-03T09:58:58.859Z,18.70
2018-10-03T09:59:59.063Z,16.20
2018-10-03T10:00:58.998Z,16.20
2018-10-03T10:01:58.827Z,15.70
2018-10-03T10:02:58.811Z,19.60
2018-10-03T10:03:58.857Z,18.30
2018-10-03T10:04:58.864Z,15.40
2018-10-03T10:05:58.848Z,14.10
2018-10-03T10:06:58.785Z,17.50
2018-10-03T10:07:58.752Z,14.20
2018-10-03T10:08:58.833Z,22.50
2018-10-03T10:09:58.737Z,14.80
2018-10-03T10:10:59.447Z,18.10
2018-10-03T10:11:58.749Z,14.90
2018-10-03T10:12:58.733Z,17.90
2018-10-03T10:13:58.851Z,14.20
2018-10-03T10:14:58.722Z,16.20
2018-10-03T10:15:58.672Z,14.10
2018-10-03T10:16:58.657Z,20.00
2018-10-03T10:17:58.648Z,16.80
2018-10-03T10:18:58.696Z,16.00
2018-10-03T10:19:58.640Z,13.50
2018-10-03T10:20:58.744Z,15.50
2018-10-03T10:21:59.336Z,16.20
2018-10-03T10:22:58.599Z,17.40
2018-10-03T10:26:38.334Z,13.90
2018-10-03T10:29:24.362Z,19.20
2018-10-03T10:34:07.866Z,15.60
2018-10-03T10:35:07.361Z,15.90
2018-10-03T10:36:07.803Z,13.70
2018-10-03T10:37:07.333Z,15.60
2018-10-03T10:38:07.166Z,14.60
2018-10-03T10:39:07.095Z,14.50
2018-10-03T10:40:07.143Z,17.80
2018-10-03T10:41:07.138Z,17.10
2018-10-03T10:47:36.516Z,12.50
2018-10-03T10:51:44.005Z,17.90
2018-10-03T10:52:43.511Z,13.20
2018-10-03T10:53:43.317Z,17.30
2018-10-03T10:54:43.417Z,20.70
2018-10-03T10:55:45.820Z,15.80
2018-10-03T10:56:43.291Z,17.30
2018-10-03T10:57:43.246Z,16.50
2018-10-03T10:58:43.249Z,17.10
2018-10-03T10:59:43.219Z,14.80
2018-10-03T11:00:43.171Z,14.80
2018-10-03T11:01:43.233Z,16.50
2018-10-03T11:02:43.239Z,19.00
2018-10-03T11:03:43.215Z,15.50
2018-10-03T11:07:45.282Z,24.00
2018-10-03T11:11:09.051Z,14.40
2018-10-03T11:18:57.565Z,16.70
2018-10-03T11:19:59.186Z,14.50
2018-10-03T11:22:41.621Z,26.00
2018-10-03T11:26:55.210Z,23.40
2018-10-03T11:54:58.851Z,12.00
2018-10-03T11:55:59.167Z,12.10
2018-10-03T11:57:11.542Z,14.00
2018-10-03T11:57:58.650Z,10.80
2018-10-03T11:58:58.579Z,11.40
2018-10-03T11:59:58.614Z,13.50
2018-10-03T12:00:59.733Z,11.90
2018-10-03T12:01:58.502Z,11.20
2018-10-03T12:02:58.555Z,11.50
2018-10-03T12:03:58.724Z,9.00
2018-10-03T12:04:58.439Z,13.40
2018-10-03T12:05:58.411Z,12.20
2018-10-03T12:14:25.749Z,5.50
2018-10-03T12:17:02.637Z,8.00
2018-10-03T12:23:16.241Z,11.20
2018-10-03T12:24:13.141Z,10.80
2018-10-03T12:27:54.015Z,6.50
2018-10-03T12:28:53.609Z,6.90
2018-10-03T12:29:53.642Z,9.50
2018-10-03T12:30:53.635Z,8.70
2018-10-03T13:15:37.706Z,10.20
2018-10-03T13:16:37.285Z,9.70
2018-10-03T13:37:44.518Z,10.40
2018-10-03T13:38:44.191Z,9.70
2018-10-03T13:39:44.129Z,7.60
2018-10-03T13:40:44.133Z,10.80
2018-10-03T13:41:44.002Z,8.10
2018-10-03T13:42:44.063Z,8.00
2018-10-03T13:43:44.003Z,11.50
2018-10-03T13:44:46.894Z,11.20
2018-10-03T13:45:43.965Z,8.30
2018-10-03T13:46:44.019Z,9.50
2018-10-03T13:47:43.959Z,8.30
2018-10-03T13:48:43.930Z,11.10
2018-10-03T13:49:43.987Z,12.20
2018-10-03T13:50:44.067Z,13.50
2018-10-03T13:51:45.141Z,11.50
2018-10-03T13:52:43.911Z,10.90
2018-10-03T13:53:44.832Z,10.40
2018-10-03T13:54:43.941Z,12.30
2018-10-03T13:55:43.858Z,13.90
2018-10-03T13:59:26.859Z,11.00
2018-10-03T14:00:26.414Z,15.70
2018-10-03T14:01:27.587Z,9.70
2018-10-03T14:02:26.450Z,11.70
2018-10-03T14:03:26.382Z,10.10
2018-10-03T14:04:26.409Z,13.20
2018-10-03T14:05:26.368Z,10.60
2018-10-03T14:06:26.405Z,11.20
2018-10-03T14:07:26.327Z,10.50
2018-10-03T14:08:26.309Z,11.40
2018-10-03T14:09:26.324Z,11.90
2018-10-03T14:10:26.328Z,12.10
2018-10-03T14:11:26.275Z,11.70
2018-10-03T14:12:26.283Z,11.90
2018-10-03T14:13:26.266Z,11.90
2018-10-03T14:14:26.373Z,12.10
2018-10-03T14:19:27.222Z,17.50
2018-10-03T14:20:26.791Z,9.60
2018-10-03T14:21:26.831Z,9.20
2018-10-03T14:22:26.639Z,13.20
2018-10-03T14:23:26.684Z,11.00
2018-10-03T14:24:26.673Z,7.70
2018-10-03T14:25:26.706Z,11.20
2018-10-03T14:26:26.636Z,8.90
2018-10-03T14:27:26.639Z,10.00
2018-10-03T14:28:26.586Z,8.50
2018-10-03T14:29:26.763Z,10.90
2018-10-03T14:30:26.574Z,9.20
2018-10-03T14:31:26.542Z,9.30
2018-10-03T14:32:27.125Z,11.20
2018-10-03T14:33:26.657Z,9.90
2018-10-03T14:34:26.508Z,9.70
2018-10-03T14:35:26.543Z,8.60
2018-10-03T14:36:26.510Z,10.20
2018-10-03T14:37:26.523Z,10.80
2018-10-03T14:38:26.516Z,8.20
2018-10-03T14:39:26.457Z,9.70
2018-10-03T14:40:26.445Z,9.60
2018-10-03T14:41:26.441Z,9.20
2018-10-03T14:42:26.603Z,10.00
2018-10-03T14:43:26.633Z,9.30
2018-10-03T14:44:26.407Z,12.30
2018-10-03T14:45:26.675Z,9.00
2018-10-03T14:46:26.393Z,9.30
2018-10-03T14:47:26.521Z,9.10
2018-10-03T14:48:26.540Z,8.10
2018-10-03T14:54:58.688Z,4.70
2018-10-03T14:55:58.089Z,8.00
2018-10-03T14:58:59.812Z,7.00
2018-10-03T15:00:01.051Z,10.20
2018-10-03T15:03:09.350Z,9.00
2018-10-03T15:04:09.736Z,8.30
2018-10-03T15:05:08.842Z,6.80
2018-10-03T15:06:05.451Z,9.10
2018-10-03T15:07:05.244Z,8.90
2018-10-03T15:08:05.885Z,9.10
2018-10-03T15:09:05.238Z,7.40
2018-10-03T15:10:05.322Z,12.70
2018-10-03T15:15:14.245Z,9.40
2018-10-03T15:19:47.278Z,4.80
2018-10-03T15:20:46.555Z,8.80
2018-10-03T15:21:46.869Z,9.30
2018-10-03T15:22:48.383Z,8.60
2018-10-03T15:23:47.325Z,10.40
2018-10-03T15:24:46.320Z,9.50
2018-10-03T15:25:46.870Z,12.00
2018-10-03T15:26:46.572Z,12.40
2018-10-03T15:27:46.260Z,8.70
2018-10-03T15:30:16.505Z,5.60
2018-10-03T15:31:16.739Z,8.90
2018-10-03T15:32:17.159Z,10.50
2018-10-03T16:40:07.084Z,13.00
2018-10-03T16:55:45.146Z,6.80
2018-10-03T17:00:54.010Z,10.90
2018-10-03T17:09:33.791Z,9.80
2018-10-03T17:10:33.499Z,12.50
2018-10-03T17:11:33.403Z,15.00
2018-10-03T17:12:33.408Z,14.10
2018-10-03T17:13:33.268Z,13.60
2018-10-03T17:14:33.713Z,16.40
2018-10-03T17:15:33.234Z,14.00
2018-10-03T17:16:34.081Z,13.90
2018-10-03T17:17:33.153Z,14.80
2018-10-03T17:18:33.147Z,12.90
2018-10-03T17:19:33.121Z,13.50
2018-10-03T17:20:34.397Z,18.70
2018-10-03T17:21:33.224Z,11.80
2018-10-03T17:22:33.947Z,12.30
2018-10-03T17:23:33.187Z,12.40
2018-10-03T17:24:33.262Z,16.20
2018-10-03T17:25:33.074Z,13.40
2018-10-03T17:26:33.436Z,12.70
2018-10-03T17:27:33.032Z,16.90
2018-10-03T17:28:33.060Z,17.90
2018-10-03T17:29:33.006Z,15.90
2018-10-03T17:30:33.008Z,18.20
2018-10-03T17:31:33.008Z,14.30
2018-10-03T17:32:32.978Z,13.90
2018-10-03T17:33:33.019Z,18.70
2018-10-03T17:34:33.008Z,12.70
2018-10-03T17:35:32.933Z,11.80
2018-10-03T17:36:32.946Z,11.40
2018-10-03T17:37:33.041Z,13.70
2018-10-03T17:38:32.927Z,14.60
2018-10-03T17:39:33.042Z,14.60
2018-10-03T17:40:32.966Z,14.30
2018-10-03T17:41:32.906Z,14.80
2018-10-03T17:42:32.879Z,12.60
2018-10-03T17:43:32.875Z,12.80
2018-10-03T17:44:32.848Z,14.80
2018-10-03T17:45:32.849Z,13.00
2018-10-03T17:46:32.881Z,12.60
2018-10-03T17:47:32.863Z,11.30
2018-10-03T17:48:32.829Z,14.20
2018-10-03T17:49:32.803Z,17.60
2018-10-03T17:50:32.814Z,13.70
2018-10-03T17:51:32.766Z,15.10
2018-10-03T17:52:32.760Z,13.40
2018-10-03T17:53:32.836Z,18.40
2018-10-03T17:54:32.780Z,15.00
2018-10-03T17:55:32.728Z,13.80
2018-10-03T17:56:32.716Z,14.30
2018-10-03T17:57:32.715Z,16.80
2018-10-03T17:58:32.691Z,12.70
2018-10-03T17:59:32.716Z,12.40
2018-10-03T18:00:32.672Z,13.70
2018-10-03T18:01:32.807Z,15.10
2018-10-03T18:02:32.716Z,11.70
2018-10-03T18:03:32.650Z,17.70
2018-10-03T18:04:32.757Z,16.10
2018-10-03T18:05:32.620Z,14.60
2018-10-03T18:06:32.668Z,14.70
2018-10-03T18:07:32.623Z,16.90
2018-10-03T18:08:32.666Z,14.30
2018-10-03T18:09:32.627Z,16.80
2018-10-03T18:10:32.594Z,15.20
2018-10-03T18:11:32.560Z,11.80
2018-10-03T18:12:33.109Z,15.90
2018-10-03T18:13:32.643Z,15.00
2018-10-03T18:14:32.516Z,15.00
2018-10-03T18:15:32.508Z,14.30
2018-10-03T18:16:32.501Z,14.90
2018-10-03T18:17:32.734Z,15.80
2018-10-03T18:18:32.526Z,15.80
2018-10-03T18:19:32.498Z,20.80
2018-10-03T18:20:32.453Z,17.00
2018-10-03T18:21:32.464Z,15.70
2018-10-03T18:22:33.906Z,16.30
2018-10-03T18:23:32.423Z,14.30
2018-10-03T18:25:49.804Z,17.90
2018-10-03T18:26:49.300Z,20.00
2018-10-03T18:27:49.358Z,19.60
2018-10-03T18:28:49.203Z,19.10
2018-10-03T18:29:49.166Z,16.20
2018-10-03T18:30:49.183Z,13.40
2018-10-03T18:31:49.140Z,14.10
2018-10-03T18:32:49.123Z,13.90
2018-10-03T18:33:49.155Z,17.10
2018-10-03T18:34:49.164Z,14.20
2018-10-03T18:39:29.240Z,21.20
2018-10-03T18:40:28.820Z,14.30
2018-10-03T18:41:28.682Z,16.60
2018-10-03T18:42:28.775Z,14.40
2018-10-03T18:43:28.653Z,16.80
2018-10-03T18:44:28.611Z,17.70
2018-10-03T18:45:28.797Z,12.80
2018-10-03T18:46:28.603Z,19.60
2018-10-03T18:47:28.598Z,11.70
2018-10-03T18:48:28.572Z,17.90
2018-10-03T18:49:28.575Z,15.00
2018-10-03T18:50:28.672Z,17.10
2018-10-03T18:51:28.555Z,16.90
2018-10-03T18:52:28.870Z,16.20
2018-10-03T18:53:28.550Z,16.90
2018-10-03T18:54:29.430Z,16.70
2018-10-03T18:55:28.579Z,15.20
2018-10-03T18:56:28.481Z,17.40
2018-10-03T18:57:28.526Z,13.20
2018-10-03T18:58:28.458Z,14.70
2018-10-03T18:59:28.476Z,18.80
2018-10-03T19:00:28.489Z,20.20
2018-10-03T19:01:28.432Z,17.20
2018-10-03T19:02:28.435Z,15.30
2018-10-03T19:03:28.458Z,14.90
2018-10-03T19:04:28.396Z,16.60
2018-10-03T19:05:28.486Z,19.10
2018-10-03T19:06:28.372Z,16.80
2018-10-03T19:07:28.350Z,17.10
2018-10-03T19:08:28.359Z,17.00
2018-10-03T19:09:28.352Z,16.30
2018-10-03T19:10:28.337Z,17.00
2018-10-03T19:11:28.489Z,21.10
2018-10-03T19:12:28.382Z,17.70
2018-10-03T19:13:28.296Z,17.00
2018-10-03T19:14:28.291Z,14.70
2018-10-03T19:15:28.307Z,19.50
2018-10-03T19:16:28.341Z,13.40
2018-10-03T19:17:28.258Z,15.70
2018-10-03T19:18:28.262Z,20.90
2018-10-03T19:19:28.241Z,18.30
2018-10-03T19:20:28.275Z,17.40
2018-10-03T19:21:28.913Z,14.00
2018-10-03T19:22:28.255Z,14.80
2018-10-03T19:23:28.281Z,14.80
2018-10-03T19:24:28.376Z,16.90
2018-10-03T19:25:28.354Z,14.90
2018-10-03T19:26:28.169Z,17.30
2018-10-03T19:27:40.468Z,21.20
2018-10-03T19:28:28.496Z,18.90
2018-10-03T19:29:28.286Z,18.10
2018-10-03T19:30:28.338Z,18.30
2018-10-03T19:31:28.173Z,20.50
2018-10-03T19:32:28.103Z,20.60
2018-10-03T19:33:28.110Z,18.30
2018-10-03T19:34:28.166Z,24.00
2018-10-03T19:35:28.152Z,21.20
2018-10-03T19:36:28.049Z,16.10
2018-10-03T19:37:28.061Z,21.20
2018-10-03T19:38:28.050Z,23.70
2018-10-03T19:39:28.032Z,21.70
2018-10-03T19:40:27.993Z,22.90
2018-10-03T19:41:28.076Z,22.70
2018-10-03T19:42:28.016Z,22.10
2018-10-03T19:43:28.034Z,25.50
2018-10-03T19:44:28.002Z,18.90
2018-10-03T19:45:28.042Z,19.30
2018-10-03T19:46:27.940Z,18.20
2018-10-03T19:47:28.440Z,25.80
2018-10-03T19:48:28.064Z,18.80
2018-10-03T19:49:28.103Z,20.00
2018-10-03T19:50:27.899Z,37.50
2018-10-03T19:51:27.962Z,35.70
2018-10-03T19:52:27.891Z,31.50
2018-10-03T19:53:27.860Z,29.30
2018-10-03T19:54:27.871Z,18.70
2018-10-03T19:55:27.864Z,20.50
2018-10-03T19:56:27.895Z,16.70
2018-10-03T19:57:27.866Z,17.20
2018-10-03T19:58:27.798Z,14.10
2018-10-03T20:01:20.095Z,13.10
2018-10-03T20:02:19.027Z,11.70
2018-10-03T20:03:19.085Z,18.40
2018-10-03T20:04:18.892Z,15.70
2018-10-03T20:05:18.810Z,15.10
2018-10-03T20:06:18.716Z,16.60
2018-10-03T20:07:18.768Z,15.80
2018-10-03T20:08:18.738Z,16.10
2018-10-03T20:09:18.687Z,16.10
2018-10-03T20:10:18.820Z,18.60
2018-10-03T20:11:18.778Z,14.90
2018-10-03T20:12:19.313Z,17.90
2018-10-03T20:13:18.657Z,14.70
2018-10-03T20:14:18.783Z,19.60
2018-10-03T20:15:20.474Z,17.70
2018-10-03T20:23:38.788Z,8.90
2018-10-03T20:24:38.603Z,18.20
2018-10-03T20:25:38.268Z,13.20
2018-10-03T20:26:38.339Z,17.80
2018-10-03T20:27:38.160Z,14.50
2018-10-03T20:28:38.215Z,18.90
2018-10-03T20:29:38.260Z,15.50
2018-10-03T20:30:38.244Z,14.40
2018-10-03T20:31:38.181Z,13.40
2018-10-03T20:32:38.438Z,15.10
2018-10-03T20:33:38.256Z,16.20
2018-10-03T20:34:38.207Z,21.60
2018-10-03T20:35:38.248Z,15.30
2018-10-03T20:36:38.068Z,15.60
2018-10-03T20:37:38.066Z,15.00
2018-10-03T20:38:38.126Z,16.40
2018-10-03T20:39:38.168Z,18.60
2018-10-03T20:40:38.050Z,13.80
2018-10-03T20:41:38.177Z,17.40
2018-10-03T20:42:38.192Z,16.10
2018-10-03T20:43:38.093Z,19.90
2018-10-03T20:44:38.115Z,18.50
2018-10-03T20:45:37.965Z,17.10
2018-10-03T20:46:37.975Z,13.60
2018-10-03T20:47:37.949Z,20.90
2018-10-03T20:48:37.911Z,14.60
2018-10-03T20:49:38.001Z,16.80
2018-10-03T20:50:37.933Z,16.80
2018-10-03T20:51:37.949Z,13.80
2018-10-03T20:52:38.058Z,13.70
2018-10-03T20:53:37.993Z,16.20
2018-10-03T20:54:38.106Z,18.60
2018-10-03T20:55:37.935Z,15.40
2018-10-03T20:56:37.824Z,18.20
2018-10-03T20:57:37.855Z,18.10
2018-10-03T20:58:37.893Z,16.50
2018-10-03T20:59:37.852Z,17.10
2018-10-03T21:00:38.040Z,16.20
2018-10-03T21:01:38.862Z,17.50
2018-10-03T21:02:37.856Z,17.50
2018-10-03T21:03:37.793Z,17.80
2018-10-03T21:04:37.802Z,15.70
2018-10-03T21:05:37.788Z,19.40
2018-10-03T21:06:37.784Z,16.80
2018-10-03T21:07:37.797Z,19.50
2018-10-03T21:08:37.764Z,20.20
2018-10-03T21:09:37.738Z,18.20
2018-10-03T21:10:37.758Z,19.00
2018-10-03T21:11:37.669Z,17.20
2018-10-03T21:12:37.663Z,19.50
2018-10-03T21:13:37.778Z,18.00
2018-10-03T21:14:37.649Z,18.90
2018-10-03T21:15:37.684Z,17.90
2018-10-03T21:16:37.627Z,18.10
2018-10-03T21:17:37.628Z,20.40
2018-10-03T21:18:37.592Z,17.50
2018-10-03T21:19:37.655Z,14.60
2018-10-03T21:20:37.600Z,19.00
2018-10-03T21:21:37.602Z,18.10
2018-10-03T21:22:37.586Z,15.90
2018-10-03T21:23:37.529Z,17.60
2018-10-03T21:24:37.527Z,17.30
2018-10-03T21:25:37.568Z,20.30
2018-10-03T21:26:37.559Z,20.20
2018-10-03T21:27:37.506Z,19.90
2018-10-03T21:28:37.549Z,16.30
2018-10-03T21:29:37.472Z,18.40
2018-10-03T21:30:37.528Z,16.80
2018-10-03T21:31:37.457Z,22.50
2018-10-03T21:32:37.490Z,16.60
2018-10-03T21:33:37.425Z,18.30
2018-10-03T21:34:37.408Z,22.30
2018-10-03T21:35:37.467Z,17.90
2018-10-03T21:36:37.425Z,18.10
2018-10-03T21:37:37.400Z,18.10
2018-10-03T21:38:37.381Z,18.50
2018-10-03T21:39:37.406Z,20.10
2018-10-03T21:40:37.337Z,19.70
2018-10-03T21:41:37.328Z,19.10
2018-10-03T21:42:37.350Z,20.90
2018-10-03T21:43:37.387Z,18.80
2018-10-03T21:44:37.386Z,17.50
2018-10-03T21:45:37.285Z,19.30
2018-10-03T21:46:37.273Z,19.10
2018-10-03T21:47:37.292Z,18.80
2018-10-03T21:48:37.253Z,17.70
2018-10-03T21:49:37.269Z,20.10
2018-10-03T21:50:37.232Z,18.60
2018-10-03T21:51:37.243Z,21.80
2018-10-03T21:52:37.209Z,21.30
2018-10-03T21:53:37.218Z,18.00
2018-10-03T21:54:37.204Z,16.50
2018-10-03T21:55:37.175Z,17.90
2018-10-03T21:56:37.216Z,17.50
2018-10-03T21:57:37.152Z,20.00
2018-10-03T21:58:37.191Z,15.40
2018-10-03T21:59:37.213Z,19.60
2018-10-03T22:00:37.169Z,18.00
2018-10-03T22:01:37.111Z,17.40
2018-10-03T22:02:37.110Z,20.30
2018-10-03T22:03:37.093Z,21.70
2018-10-03T22:04:37.085Z,17.90
2018-10-03T22:05:37.134Z,16.30
2018-10-03T22:06:37.119Z,20.80
2018-10-03T22:07:37.070Z,16.70
2018-10-03T22:08:37.055Z,16.10
2018-10-03T22:09:37.089Z,17.90
2018-10-03T22:10:37.018Z,21.10
2018-10-03T22:11:37.062Z,21.00
2018-10-03T22:12:37.054Z,15.30
2018-10-03T22:13:36.993Z,18.90
2018-10-03T22:14:37.018Z,15.50
2018-10-03T22:15:36.961Z,15.90
2018-10-03T22:16:36.986Z,15.50
2018-10-03T22:17:36.967Z,22.00
2018-10-03T22:18:36.968Z,20.20
2018-10-03T22:19:36.921Z,18.80
2018-10-03T22:20:36.896Z,19.30
2018-10-03T22:21:36.894Z,19.90
2018-10-03T22:22:36.995Z,20.90
2018-10-03T22:23:36.866Z,17.70
2018-10-03T22:24:36.868Z,24.20
2018-10-03T22:25:36.860Z,24.30
2018-10-03T22:26:36.876Z,24.10
2018-10-03T22:27:36.824Z,19.40
2018-10-03T22:28:36.906Z,26.40
2018-10-03T22:29:36.822Z,20.00
2018-10-03T22:30:36.789Z,22.10
2018-10-03T22:31:36.793Z,18.80
2018-10-03T22:32:36.866Z,21.10
2018-10-03T22:33:36.772Z,27.20
2018-10-03T22:34:36.753Z,21.10
2018-10-03T22:35:36.813Z,20.20
2018-10-03T22:36:36.739Z,23.70
2018-10-03T22:37:36.772Z,18.90
2018-10-03T22:38:36.704Z,21.40
2018-10-03T22:39:36.705Z,22.20
2018-10-03T22:40:36.691Z,23.10
2018-10-03T22:41:36.676Z,26.40
2018-10-03T22:42:36.684Z,22.80
2018-10-03T22:43:36.649Z,19.00
2018-10-03T22:44:36.694Z,19.20
2018-10-03T22:45:36.652Z,21.30
2018-10-03T22:46:36.624Z,21.90
2018-10-03T22:47:36.605Z,22.10
2018-10-03T22:48:36.667Z,22.20
2018-10-03T22:49:36.584Z,24.60
2018-10-03T22:50:36.628Z,25.60
2018-10-03T22:51:36.569Z,23.80
2018-10-03T22:52:36.543Z,21.10
2018-10-03T22:53:36.600Z,21.50
2018-10-03T22:54:36.525Z,22.90
2018-10-03T22:55:36.547Z,26.00
2018-10-03T22:56:36.561Z,23.00
2018-10-03T22:57:36.485Z,19.00
2018-10-03T22:58:36.475Z,21.60
2018-10-03T22:59:36.501Z,22.40
2018-10-03T23:00:36.501Z,22.10
2018-10-03T23:01:36.463Z,17.80
2018-10-03T23:02:36.449Z,20.90
2018-10-03T23:03:36.419Z,18.90
2018-10-03T23:04:36.424Z,23.00
2018-10-03T23:05:36.394Z,21.40
2018-10-03T23:06:36.454Z,23.70
2018-10-03T23:07:36.382Z,22.10
2018-10-03T23:08:36.460Z,23.90
2018-10-03T23:09:36.381Z,22.60
2018-10-03T23:10:36.349Z,22.50
2018-10-03T23:11:36.376Z,19.50
2018-10-03T23:12:36.362Z,22.30
2018-10-03T23:13:36.343Z,24.30
2018-10-03T23:14:36.347Z,18.70
2018-10-03T23:15:36.292Z,22.40
2018-10-03T23:16:36.292Z,22.40
2018-10-03T23:17:36.315Z,25.20
2018-10-03T23:18:36.248Z,26.70
2018-10-03T23:19:36.272Z,20.60
2018-10-03T23:20:36.299Z,20.20
2018-10-03T23:21:36.213Z,24.60
2018-10-03T23:22:36.228Z,20.20
2018-10-03T23:23:36.237Z,22.30
2018-10-03T23:24:36.200Z,23.00
2018-10-03T23:25:36.192Z,21.70
2018-10-03T23:26:36.190Z,23.80
2018-10-03T23:27:36.193Z,20.30
2018-10-03T23:28:36.137Z,22.10
2018-10-03T23:29:36.160Z,21.90
2018-10-03T23:30:36.175Z,20.30
2018-10-03T23:31:36.233Z,22.40
2018-10-03T23:32:36.169Z,20.40
2018-10-03T23:33:36.123Z,21.00
2018-10-03T23:34:36.078Z,20.20
2018-10-03T23:35:36.103Z,21.90
2018-10-03T23:36:36.061Z,19.80
2018-10-03T23:37:36.060Z,19.40
2018-10-03T23:38:36.050Z,26.00
2018-10-03T23:39:36.019Z,21.20
2018-10-03T23:40:36.006Z,20.60
2018-10-03T23:41:36.030Z,20.90
2018-10-03T23:42:36.052Z,21.00
2018-10-03T23:43:36.030Z,23.60
2018-10-03T23:44:35.985Z,17.00
2018-10-03T23:45:35.991Z,21.50
2018-10-03T23:46:35.998Z,21.90
2018-10-03T23:47:35.982Z,16.50
2018-10-03T23:48:35.989Z,20.10
2018-10-03T23:49:35.940Z,20.70
2018-10-03T23:50:35.900Z,20.10
2018-10-03T23:51:35.894Z,21.10
2018-10-03T23:52:35.882Z,20.10
2018-10-03T23:53:35.895Z,24.10
2018-10-03T23:54:35.878Z,21.40
2018-10-03T23:55:35.835Z,23.30
2018-10-03T23:56:35.822Z,24.20
2018-10-03T23:57:35.808Z,21.60
2018-10-03T23:58:35.794Z,20.30
2018-10-03T23:59:35.810Z,18.90
